< < Back
Terminal Aerodrome Forecast


Current Version              Previous Versions:   1  2  3  4  5  6  7  8  9  

Terminal Aerodrome Forecast

770
FTUS42 KTAE 282323
TAFTLH
TAF
KTLH 282323Z 2900/2924 08006KT P6SM SCT050
     FM291000 08008KT P6SM BKN015
     FM291400 06010KT P6SM SCT030=

Latest METAR

939
SAUS80 KWBC 291200 RRA
MTRTLH
METAR KTLH 291153Z 06007KT 10SM FEW020 26/24 A3000 RMK AO2 SLP159
T02610239 10272 20256 53005


USA.gov is the U.S. government's official web portal to all federal, state and local government web resources and services.